Portal, North Dakota
Current Conditions -  °F | °C
As of 6:00 PM on Sunday 21 Dec 2014 (Local Time) from CYEN Reporting Station
Overcast Overcast  
Wind Chill: 15°   Ceiling: 6000
Heat Index: 25°   Visibility: 15mi
Dew Point: 25°   Wind: 9mph
Humidity: 100%   Direction: 100°E
Pressure: 29.37"   Gusts: NA
Location:  49°N, 102.55°W
Report Text: CYEN 220000Z 10008KT 15SM OVC060 M04/M04 A2937 RMK SC7 SLP981
Loading
Personal Weather Stations






























Interactive Weather Map New forecast layout! Learn more

10-Day Weather Forecast

Advertisements
Track Severe Weather on mobile